createdAt,value
2018-07-13T00:00:08.360Z,89.33
2018-07-13T00:02:36.698Z,89.96
2018-07-13T00:05:05.359Z,89.23
2018-07-13T00:07:33.676Z,89.63
2018-07-13T00:10:01.997Z,88.92
2018-07-13T00:12:30.329Z,89.45
2018-07-13T00:15:05.851Z,89.82
2018-07-13T00:17:34.201Z,90.03
2018-07-13T00:20:02.593Z,89.19
2018-07-13T00:22:30.905Z,89.80
2018-07-13T00:24:59.183Z,89.15
2018-07-13T00:27:27.549Z,89.59
2018-07-13T00:29:55.880Z,89.69
2018-07-13T00:32:24.205Z,89.00
2018-07-13T00:34:52.654Z,89.65
2018-07-13T00:37:21.039Z,89.49
2018-07-13T00:39:49.383Z,89.50
2018-07-13T00:42:17.717Z,89.04
2018-07-13T00:44:46.228Z,89.69
2018-07-13T00:47:14.605Z,89.01
2018-07-13T00:49:42.960Z,89.62
2018-07-13T00:52:11.341Z,89.88
2018-07-13T00:54:39.709Z,89.68
2018-07-13T00:57:08.134Z,89.50
2018-07-13T00:59:36.447Z,89.25
2018-07-13T01:02:04.766Z,89.54
2018-07-13T01:04:33.163Z,89.66
2018-07-13T01:07:01.525Z,89.80
2018-07-13T01:09:29.880Z,89.18
2018-07-13T01:11:58.178Z,89.92
2018-07-13T01:14:26.557Z,89.07
2018-07-13T01:16:55.018Z,89.95
2018-07-13T01:19:23.370Z,89.24
2018-07-13T01:21:51.689Z,89.31
2018-07-13T01:24:20.049Z,89.08
2018-07-13T01:26:48.448Z,89.71
2018-07-13T01:29:16.888Z,89.94
2018-07-13T01:31:45.231Z,89.41
2018-07-13T01:34:13.588Z,89.36
2018-07-13T01:36:41.913Z,89.83
2018-07-13T01:39:12.289Z,89.85
2018-07-13T01:41:41.002Z,89.09
2018-07-13T01:44:09.391Z,89.13
2018-07-13T01:46:37.714Z,89.29
2018-07-13T01:49:06.360Z,89.68
2018-07-13T01:51:34.720Z,89.27
2018-07-13T01:54:03.097Z,89.75
2018-07-13T01:56:31.452Z,89.23
2018-07-13T01:58:59.766Z,89.22
2018-07-13T02:01:28.269Z,89.35
2018-07-13T02:03:56.843Z,89.24
2018-07-13T02:06:25.166Z,89.45
2018-07-13T02:08:53.666Z,89.59
2018-07-13T02:11:22.013Z,89.55
2018-07-13T02:13:51.197Z,89.57
2018-07-13T02:16:19.550Z,89.38
2018-07-13T02:18:48.231Z,88.97
2018-07-13T02:21:16.565Z,88.98
2018-07-13T02:23:44.905Z,89.00
2018-07-13T02:26:13.329Z,88.29
2018-07-13T02:28:41.689Z,89.19
2018-07-13T02:31:10.044Z,89.04
2018-07-13T02:33:38.395Z,89.09
2018-07-13T02:36:06.778Z,88.80
2018-07-13T02:38:35.097Z,89.08
2018-07-13T02:41:03.451Z,88.86
2018-07-13T02:43:31.763Z,89.22
2018-07-13T02:46:00.172Z,88.86
2018-07-13T02:48:28.505Z,89.06
2018-07-13T02:50:56.840Z,88.86
2018-07-13T02:53:25.172Z,88.94
2018-07-13T02:55:53.500Z,88.79
2018-07-13T02:58:21.833Z,88.92
2018-07-13T03:00:50.208Z,89.30
2018-07-13T03:03:18.633Z,89.30
2018-07-13T03:05:46.974Z,89.36
2018-07-13T03:08:15.291Z,89.17
2018-07-13T03:10:43.768Z,89.11
2018-07-13T03:13:12.161Z,89.01
2018-07-13T03:15:40.486Z,89.35
2018-07-13T03:18:08.859Z,89.44
2018-07-13T03:20:37.204Z,89.22
2018-07-13T03:23:05.554Z,89.93
2018-07-13T03:25:33.913Z,89.27
2018-07-13T03:28:02.258Z,88.69
2018-07-13T03:30:30.612Z,88.54
2018-07-13T03:32:58.917Z,88.93
2018-07-13T03:35:27.284Z,88.50
2018-07-13T03:37:55.682Z,89.07
2018-07-13T03:40:24.001Z,88.68
2018-07-13T03:42:52.358Z,88.69
2018-07-13T03:45:20.685Z,88.61
2018-07-13T03:47:49.034Z,88.70
2018-07-13T03:50:17.354Z,88.64
2018-07-13T03:52:45.730Z,88.81
2018-07-13T03:55:14.083Z,88.84
2018-07-13T03:57:42.454Z,88.72
2018-07-13T04:00:10.819Z,87.83
2018-07-13T04:02:39.158Z,87.36
2018-07-13T04:05:07.493Z,87.15
2018-07-13T04:07:35.796Z,87.45
2018-07-13T04:10:04.212Z,87.74
2018-07-13T04:12:32.573Z,85.74
2018-07-13T04:15:00.965Z,84.00
2018-07-13T04:17:29.264Z,82.23
2018-07-13T04:19:57.628Z,79.94
2018-07-13T04:22:26.235Z,77.88
2018-07-13T04:24:54.898Z,75.14
2018-07-13T04:27:26.883Z,72.86
2018-07-13T04:29:55.844Z,70.54
2018-07-13T04:32:24.467Z,67.60
2018-07-13T04:34:53.259Z,66.29
2018-07-13T04:37:21.599Z,64.18
2018-07-13T04:39:49.929Z,62.50
2018-07-13T04:42:18.248Z,61.34
2018-07-13T04:44:46.648Z,59.77
2018-07-13T04:47:14.960Z,58.86
2018-07-13T04:49:43.292Z,57.49
2018-07-13T04:52:11.646Z,56.23
2018-07-13T04:54:39.994Z,54.66
2018-07-13T04:57:08.331Z,55.13
2018-07-13T04:59:36.668Z,53.89
2018-07-13T05:02:05.380Z,53.01
2018-07-13T05:04:33.970Z,52.57
2018-07-13T05:07:02.370Z,52.14
2018-07-13T05:09:30.939Z,51.35
2018-07-13T05:11:59.382Z,50.79
2018-07-13T05:14:27.752Z,50.30
2018-07-13T05:16:56.147Z,49.02
2018-07-13T05:19:24.496Z,48.03
2018-07-13T05:21:53.046Z,48.27
2018-07-13T05:24:21.440Z,47.70
2018-07-13T05:26:49.940Z,47.32
2018-07-13T05:29:18.388Z,47.18
2018-07-13T05:31:46.780Z,46.26
2018-07-13T05:34:15.169Z,45.67
2018-07-13T05:36:43.607Z,46.34
2018-07-13T05:39:13.136Z,45.08
2018-07-13T05:41:41.819Z,45.84
2018-07-13T05:44:10.248Z,45.72
2018-07-13T05:46:38.936Z,44.90
2018-07-13T05:49:07.351Z,45.74
2018-07-13T05:51:35.748Z,45.38
2018-07-13T05:54:04.376Z,44.90
2018-07-13T05:56:32.890Z,45.61
2018-07-13T05:59:01.252Z,47.74
2018-07-13T06:01:29.640Z,48.33
2018-07-13T06:03:58.092Z,49.37
2018-07-13T06:06:26.404Z,52.33
2018-07-13T06:08:54.811Z,53.21
2018-07-13T06:11:23.170Z,54.94
2018-07-13T06:13:51.488Z,54.66
2018-07-13T06:16:19.793Z,57.60
2018-07-13T06:18:48.081Z,58.68
2018-07-13T06:21:16.460Z,59.63
2018-07-13T06:23:44.788Z,61.47
2018-07-13T06:26:13.141Z,62.67
2018-07-13T06:28:41.486Z,62.77
2018-07-13T06:31:10.052Z,63.62
2018-07-13T06:33:38.485Z,64.06
2018-07-13T06:36:06.897Z,65.41
2018-07-13T06:38:35.261Z,65.51
2018-07-13T06:41:03.812Z,66.53
2018-07-13T06:43:32.176Z,66.81
2018-07-13T06:46:00.522Z,68.47
2018-07-13T06:48:28.900Z,68.55
2018-07-13T06:50:57.284Z,68.53
2018-07-13T06:53:25.688Z,68.81
2018-07-13T06:55:54.070Z,69.92
2018-07-13T06:58:33.742Z,70.03
2018-07-13T07:01:08.054Z,68.80
2018-07-13T07:03:42.236Z,68.66
2018-07-13T07:06:13.255Z,68.41
2018-07-13T07:08:45.179Z,67.94
2018-07-13T07:11:13.872Z,67.63
2018-07-13T07:13:44.201Z,67.45
2018-07-13T07:16:12.578Z,67.80
2018-07-13T07:18:41.004Z,67.13
2018-07-13T07:21:09.700Z,66.05
2018-07-13T07:23:38.330Z,66.99
2018-07-13T07:26:07.012Z,66.12
2018-07-13T07:28:36.225Z,66.76
2018-07-13T07:31:04.615Z,67.71
2018-07-13T07:33:32.968Z,67.52
2018-07-13T07:36:01.318Z,66.91
2018-07-13T07:38:29.728Z,66.43
2018-07-13T07:40:58.049Z,66.12
2018-07-13T07:43:26.614Z,65.28
2018-07-13T07:45:54.977Z,64.94
2018-07-13T07:48:23.327Z,65.39
2018-07-13T07:50:51.705Z,64.36
2018-07-13T07:53:20.053Z,64.35
2018-07-13T07:55:48.373Z,64.67
2018-07-13T07:58:16.743Z,64.56
2018-07-13T08:00:45.097Z,64.58
2018-07-13T08:03:13.456Z,65.42
2018-07-13T08:05:41.781Z,65.39
2018-07-13T08:08:10.204Z,64.86
2018-07-13T08:10:38.594Z,64.46
2018-07-13T08:13:07.114Z,64.73
2018-07-13T08:15:35.429Z,63.86
2018-07-13T08:18:03.866Z,64.30
2018-07-13T08:20:35.524Z,65.08
2018-07-13T08:23:07.698Z,65.14
2018-07-13T08:25:36.948Z,64.97
2018-07-13T08:28:05.674Z,64.66
2018-07-13T08:30:50.333Z,64.95
2018-07-13T08:33:18.679Z,64.95
2018-07-13T08:35:47.035Z,64.55
2018-07-13T08:38:15.399Z,64.57
2018-07-13T08:40:43.735Z,65.00
2018-07-13T08:43:12.112Z,64.81
2018-07-13T08:45:40.493Z,64.74
2018-07-13T08:48:08.930Z,64.13
2018-07-13T08:50:37.302Z,63.59
2018-07-13T08:53:05.837Z,63.27
2018-07-13T08:55:34.199Z,63.53
2018-07-13T08:58:02.688Z,63.78
2018-07-13T09:00:31.064Z,63.68
2018-07-13T09:02:59.493Z,63.23
2018-07-13T09:05:27.817Z,63.10
2018-07-13T09:07:56.378Z,63.02
2018-07-13T09:10:24.898Z,62.44
2018-07-13T09:12:53.252Z,63.34
2018-07-13T09:15:21.606Z,62.64
2018-07-13T09:17:49.933Z,62.83
2018-07-13T09:20:18.335Z,62.82
2018-07-13T09:22:46.706Z,62.84
2018-07-13T09:25:15.063Z,63.45
2018-07-13T09:27:43.424Z,62.34
2018-07-13T09:30:12.540Z,62.86
2018-07-13T09:32:41.141Z,62.48
2018-07-13T09:35:09.756Z,62.13
2018-07-13T09:37:38.177Z,62.12
2018-07-13T09:40:06.759Z,62.27
2018-07-13T09:42:35.594Z,61.38
2018-07-13T09:45:03.968Z,61.71
2018-07-13T09:47:32.391Z,62.02
2018-07-13T09:50:00.701Z,60.91
2018-07-13T09:52:29.078Z,60.14
2018-07-13T09:54:57.655Z,59.77
2018-07-13T09:57:26.333Z,59.37
2018-07-13T09:59:54.727Z,59.01
2018-07-13T10:02:23.078Z,58.79
2018-07-13T10:04:51.445Z,59.12
2018-07-13T10:07:19.891Z,59.67
2018-07-13T10:09:48.296Z,59.28
2018-07-13T10:12:16.693Z,58.58
2018-07-13T10:14:45.051Z,58.00
2018-07-13T10:17:13.385Z,55.41
2018-07-13T10:19:41.853Z,56.77
2018-07-13T10:22:12.357Z,57.19
2018-07-13T10:24:42.150Z,56.65
2018-07-13T10:27:10.553Z,57.39
2018-07-13T10:29:42.356Z,56.60
2018-07-13T10:32:10.709Z,56.23
2018-07-13T10:34:39.078Z,55.67
2018-07-13T10:37:07.483Z,54.70
2018-07-13T10:39:35.953Z,54.64
2018-07-13T10:42:04.312Z,54.53
2018-07-13T10:44:32.732Z,54.69
2018-07-13T10:47:01.115Z,54.67
2018-07-13T10:49:29.520Z,54.90
2018-07-13T10:51:57.924Z,55.83
2018-07-13T10:54:26.306Z,55.22
2018-07-13T10:56:54.714Z,54.96
2018-07-13T10:59:23.004Z,55.19
2018-07-13T11:01:51.357Z,54.57
2018-07-13T11:04:19.727Z,54.95
2018-07-13T11:06:48.061Z,55.19
2018-07-13T11:09:16.385Z,54.57
2018-07-13T11:11:44.870Z,54.51
2018-07-13T11:14:13.187Z,55.55
2018-07-13T11:16:41.550Z,55.04
2018-07-13T11:19:09.887Z,54.27
2018-07-13T11:21:38.221Z,54.13
2018-07-13T11:24:06.613Z,54.79
2018-07-13T11:26:34.965Z,54.76
2018-07-13T11:29:03.292Z,54.70
2018-07-13T11:31:31.643Z,54.40
2018-07-13T11:34:00.050Z,54.59
2018-07-13T11:36:28.341Z,53.50
2018-07-13T11:38:56.713Z,54.90
2018-07-13T11:41:25.069Z,53.99
2018-07-13T11:43:53.386Z,54.46
2018-07-13T11:46:21.729Z,53.80
2018-07-13T11:48:50.044Z,52.52
2018-07-13T11:51:18.414Z,52.63
2018-07-13T11:53:46.714Z,52.07
2018-07-13T11:56:15.303Z,51.82
2018-07-13T11:58:43.621Z,51.66
2018-07-13T12:01:11.979Z,51.70
2018-07-13T12:03:40.302Z,51.55
2018-07-13T12:06:08.645Z,50.52
2018-07-13T12:08:37.046Z,51.35
2018-07-13T12:11:05.415Z,51.28
2018-07-13T12:13:33.751Z,51.56
2018-07-13T12:16:02.127Z,52.38
2018-07-13T12:18:30.463Z,52.55
2018-07-13T12:20:58.929Z,50.86
2018-07-13T12:23:27.306Z,50.98
2018-07-13T12:25:55.641Z,50.72
2018-07-13T12:28:24.350Z,48.64
2018-07-13T12:30:52.722Z,49.49
2018-07-13T12:33:21.024Z,49.75
2018-07-13T12:35:49.377Z,49.62
2018-07-13T12:38:17.695Z,49.57
2018-07-13T12:40:46.061Z,49.25
2018-07-13T12:43:14.411Z,48.61
2018-07-13T12:45:42.774Z,48.36
2018-07-13T12:48:11.185Z,49.50
2018-07-13T12:50:39.540Z,49.54
2018-07-13T12:53:07.982Z,49.06
2018-07-13T12:55:36.321Z,47.80
2018-07-13T12:58:04.963Z,46.98
2018-07-13T13:00:33.323Z,48.79
2018-07-13T13:03:01.705Z,48.66
2018-07-13T13:05:30.194Z,48.16
2018-07-13T13:07:58.449Z,46.61
2018-07-13T13:10:26.828Z,46.59
2018-07-13T13:12:55.120Z,47.23
2018-07-13T13:15:23.529Z,46.83
2018-07-13T13:17:51.894Z,46.47
2018-07-13T13:20:20.346Z,47.28
2018-07-13T13:22:48.818Z,47.36
2018-07-13T13:25:17.162Z,46.86
2018-07-13T13:27:45.497Z,46.33
2018-07-13T13:30:13.903Z,45.73
2018-07-13T13:32:42.226Z,45.72
2018-07-13T13:35:10.560Z,46.09
2018-07-13T13:37:38.928Z,45.11
2018-07-13T13:40:07.347Z,45.53
2018-07-13T13:42:35.687Z,45.59
2018-07-13T13:45:04.013Z,44.52
2018-07-13T13:47:32.362Z,44.72
2018-07-13T13:50:00.693Z,45.49
2018-07-13T13:52:29.155Z,44.57
2018-07-13T13:54:57.481Z,45.54
2018-07-13T13:57:25.845Z,45.30
2018-07-13T13:59:54.321Z,45.12
2018-07-13T14:02:22.592Z,44.10
2018-07-13T14:04:50.913Z,43.35
2018-07-13T14:07:19.361Z,43.35
2018-07-13T14:09:47.825Z,43.64
2018-07-13T14:12:16.142Z,43.77
2018-07-13T14:14:44.554Z,43.21
2018-07-13T14:17:12.908Z,43.34
2018-07-13T14:19:41.255Z,43.40
2018-07-13T14:22:09.582Z,41.50
2018-07-13T14:24:37.937Z,41.40
2018-07-13T14:27:06.306Z,41.49
2018-07-13T14:29:34.640Z,42.09
2018-07-13T14:32:02.972Z,42.18
2018-07-13T14:34:31.335Z,41.90
2018-07-13T14:36:59.682Z,41.60
2018-07-13T14:39:27.996Z,42.53
2018-07-13T14:41:56.329Z,42.15
2018-07-13T14:44:24.709Z,41.34
2018-07-13T14:46:53.050Z,41.34
2018-07-13T14:49:21.345Z,40.85
2018-07-13T14:51:49.669Z,39.71
2018-07-13T14:54:18.087Z,40.14
2018-07-13T14:56:46.458Z,40.59
2018-07-13T14:59:14.948Z,41.15
2018-07-13T15:01:43.280Z,41.03
2018-07-13T15:04:11.677Z,40.93
2018-07-13T15:06:40.077Z,41.75
2018-07-13T15:09:08.499Z,41.55
2018-07-13T15:11:36.837Z,41.83
2018-07-13T15:14:05.251Z,41.42
2018-07-13T15:16:33.557Z,41.46
2018-07-13T15:19:01.890Z,41.17
2018-07-13T15:21:30.227Z,41.84
2018-07-13T15:23:58.546Z,41.60
2018-07-13T15:26:26.964Z,41.63
2018-07-13T15:28:55.336Z,41.49
2018-07-13T15:31:23.869Z,41.91
2018-07-13T15:33:52.197Z,42.04
2018-07-13T15:36:20.581Z,42.99
2018-07-13T15:38:48.910Z,42.16
2018-07-13T15:41:17.270Z,43.01
2018-07-13T15:43:46.441Z,41.52
2018-07-13T15:46:14.794Z,40.99
2018-07-13T15:48:43.099Z,41.63
2018-07-13T15:51:11.751Z,40.42
2018-07-13T15:53:40.080Z,41.31
2018-07-13T15:56:08.397Z,40.88
2018-07-13T15:58:36.816Z,41.54
2018-07-13T16:01:05.129Z,40.69
2018-07-13T16:03:33.502Z,41.41
2018-07-13T16:06:01.862Z,40.74
2018-07-13T16:08:30.170Z,41.80
2018-07-13T16:10:58.501Z,41.22
2018-07-13T16:13:26.881Z,41.09
2018-07-13T16:15:55.210Z,41.94
2018-07-13T16:18:23.557Z,42.02
2018-07-13T16:20:51.861Z,41.72
2018-07-13T16:23:20.235Z,42.14
2018-07-13T16:25:48.582Z,42.35
2018-07-13T16:28:16.932Z,41.20
2018-07-13T16:30:45.244Z,42.33
2018-07-13T16:33:13.584Z,42.12
2018-07-13T16:35:42.087Z,41.99
2018-07-13T16:38:10.497Z,43.19
2018-07-13T16:40:38.882Z,42.82
2018-07-13T16:43:07.249Z,42.69
2018-07-13T16:45:35.589Z,43.40
2018-07-13T16:48:03.912Z,42.91
2018-07-13T16:50:32.379Z,42.44
2018-07-13T16:53:00.646Z,42.14
2018-07-13T16:55:28.984Z,42.51
2018-07-13T16:57:57.348Z,43.32
2018-07-13T17:00:25.682Z,43.72
2018-07-13T17:02:54.040Z,43.21
2018-07-13T17:05:22.395Z,43.46
2018-07-13T17:07:50.758Z,42.97
2018-07-13T17:10:19.124Z,42.54
2018-07-13T17:12:47.466Z,42.08
2018-07-13T17:15:15.851Z,41.63
2018-07-13T17:17:44.222Z,42.40
2018-07-13T17:20:12.579Z,42.47
2018-07-13T17:22:40.909Z,41.84
2018-07-13T17:25:09.240Z,41.34
2018-07-13T17:27:37.864Z,41.57
2018-07-13T17:30:07.519Z,41.58
2018-07-13T17:32:35.917Z,42.04
2018-07-13T17:35:04.328Z,42.68
2018-07-13T17:37:32.654Z,43.36
2018-07-13T17:40:01.164Z,42.67
2018-07-13T17:42:29.627Z,42.77
2018-07-13T17:44:58.013Z,42.60
2018-07-13T17:47:26.398Z,43.07
2018-07-13T17:49:54.755Z,42.97
2018-07-13T17:52:23.124Z,43.22
2018-07-13T17:54:51.541Z,43.70
2018-07-13T17:57:19.889Z,44.17
2018-07-13T17:59:48.200Z,44.05
2018-07-13T18:02:16.553Z,43.39
2018-07-13T18:04:44.932Z,42.90
2018-07-13T18:07:13.415Z,42.92
2018-07-13T18:09:41.765Z,42.84
2018-07-13T18:12:10.104Z,42.96
2018-07-13T18:14:38.480Z,43.02
2018-07-13T18:17:06.868Z,43.15
2018-07-13T18:19:35.336Z,42.67
2018-07-13T18:22:03.669Z,43.87
2018-07-13T18:24:32.017Z,43.50
2018-07-13T18:27:00.419Z,44.51
2018-07-13T18:29:28.827Z,43.77
2018-07-13T18:31:57.174Z,44.45
2018-07-13T18:34:25.498Z,44.02
2018-07-13T18:36:53.853Z,43.77
2018-07-13T18:39:22.193Z,44.84
2018-07-13T18:41:50.512Z,44.44
2018-07-13T18:44:18.922Z,44.53
2018-07-13T18:46:47.376Z,45.46
2018-07-13T18:49:16.492Z,45.18
2018-07-13T18:51:44.801Z,46.32
2018-07-13T18:54:13.143Z,46.48
2018-07-13T18:56:41.521Z,46.66
2018-07-13T18:59:09.828Z,47.20
2018-07-13T19:01:38.201Z,47.00
2018-07-13T19:04:06.656Z,47.12
2018-07-13T19:06:35.115Z,47.33
2018-07-13T19:09:03.776Z,48.41
2018-07-13T19:11:32.166Z,48.21
2018-07-13T19:14:00.512Z,48.46
2018-07-13T19:16:28.815Z,48.90
2018-07-13T19:18:57.199Z,49.67
2018-07-13T19:21:25.560Z,49.78
2018-07-13T19:23:53.954Z,50.42
2018-07-13T19:26:22.322Z,50.42
2018-07-13T19:28:50.736Z,50.95
2018-07-13T19:31:19.035Z,50.77
2018-07-13T19:33:47.372Z,50.94
2018-07-13T19:36:16.060Z,50.78
2018-07-13T19:38:44.340Z,51.74
2018-07-13T19:41:12.665Z,52.20
2018-07-13T19:43:41.100Z,51.92
2018-07-13T19:46:09.460Z,51.87
2018-07-13T19:48:37.793Z,53.03
2018-07-13T19:51:06.168Z,53.18
2018-07-13T19:53:34.613Z,53.31
2018-07-13T19:56:03.140Z,52.62
2018-07-13T19:58:31.437Z,52.86
2018-07-13T20:01:06.267Z,53.43
2018-07-13T20:03:34.614Z,53.90
2018-07-13T20:06:03.069Z,54.16
2018-07-13T20:08:31.410Z,54.65
2018-07-13T20:10:59.777Z,54.54
2018-07-13T20:13:28.152Z,54.51
2018-07-13T20:15:56.532Z,54.82
2018-07-13T20:18:24.908Z,55.64
2018-07-13T20:20:53.785Z,55.25
2018-07-13T20:23:22.118Z,55.51
2018-07-13T20:25:50.430Z,55.10
2018-07-13T20:28:18.763Z,55.47
2018-07-13T20:30:47.166Z,55.80
2018-07-13T20:33:15.653Z,55.97
2018-07-13T20:35:43.993Z,56.68
2018-07-13T20:38:12.379Z,56.96
2018-07-13T20:40:40.966Z,56.71
2018-07-13T20:43:09.499Z,56.93
2018-07-13T20:45:37.897Z,57.21
2018-07-13T20:48:06.297Z,57.36
2018-07-13T20:50:34.732Z,58.27
2018-07-13T20:53:03.086Z,59.03
2018-07-13T20:55:31.442Z,58.65
2018-07-13T20:58:00.045Z,59.37
2018-07-13T21:00:28.409Z,59.26
2018-07-13T21:02:56.777Z,59.88
2018-07-13T21:05:25.161Z,59.42
2018-07-13T21:07:53.502Z,59.17
2018-07-13T21:10:21.821Z,60.04
2018-07-13T21:12:50.181Z,59.85
2018-07-13T21:15:18.508Z,60.06
2018-07-13T21:17:46.814Z,60.26
2018-07-13T21:20:15.220Z,59.67
2018-07-13T21:22:43.585Z,59.85
2018-07-13T21:25:11.892Z,59.36
2018-07-13T21:27:40.233Z,59.99
2018-07-13T21:30:08.765Z,59.74
2018-07-13T21:32:37.062Z,59.89
2018-07-13T21:35:05.796Z,60.48
2018-07-13T21:37:34.190Z,60.85
2018-07-13T21:40:02.565Z,61.26
2018-07-13T21:42:30.936Z,61.60
2018-07-13T21:44:59.327Z,61.04
2018-07-13T21:47:27.645Z,61.49
2018-07-13T21:49:55.997Z,62.29
2018-07-13T21:52:24.306Z,61.69
2018-07-13T21:54:52.656Z,62.28
2018-07-13T21:57:20.964Z,62.32
2018-07-13T21:59:49.275Z,63.12
2018-07-13T22:02:17.619Z,63.02
2018-07-13T22:04:46.084Z,63.15
2018-07-13T22:07:14.545Z,63.69
2018-07-13T22:09:42.876Z,63.44
2018-07-13T22:12:11.266Z,64.30
2018-07-13T22:14:39.633Z,64.45
2018-07-13T22:17:08.065Z,64.70
2018-07-13T22:19:36.483Z,64.36
2018-07-13T22:22:05.149Z,64.89
2018-07-13T22:24:33.486Z,64.98
2018-07-13T22:27:01.821Z,65.68
2018-07-13T22:29:30.253Z,65.75
2018-07-13T22:31:58.597Z,66.00
2018-07-13T22:34:26.921Z,66.21
2018-07-13T22:36:55.287Z,65.89
2018-07-13T22:39:23.641Z,65.98
2018-07-13T22:41:51.965Z,66.29
2018-07-13T22:44:20.395Z,66.90
2018-07-13T22:46:48.730Z,66.82
2018-07-13T22:49:17.176Z,66.64
2018-07-13T22:51:45.472Z,66.85
2018-07-13T22:54:13.788Z,67.41
2018-07-13T22:56:42.143Z,67.67
2018-07-13T22:59:10.509Z,67.24
2018-07-13T23:01:38.963Z,68.09
2018-07-13T23:04:07.644Z,67.84
2018-07-13T23:06:36.100Z,67.82
2018-07-13T23:09:05.519Z,68.00
2018-07-13T23:11:33.873Z,68.10
2018-07-13T23:14:02.219Z,68.45
2018-07-13T23:16:30.556Z,68.28
2018-07-13T23:18:59.256Z,68.86
2018-07-13T23:21:27.754Z,69.18
2018-07-13T23:23:56.132Z,69.34
2018-07-13T23:26:24.440Z,68.60
2018-07-13T23:28:52.756Z,68.87
2018-07-13T23:31:21.101Z,69.78
2018-07-13T23:33:49.423Z,69.56
2018-07-13T23:36:17.730Z,69.49
2018-07-13T23:38:46.150Z,70.02
2018-07-13T23:41:15.141Z,69.88
2018-07-13T23:43:43.497Z,70.21
2018-07-13T23:46:12.804Z,70.41
2018-07-13T23:48:42.489Z,70.56
2018-07-13T23:51:10.795Z,70.80
2018-07-13T23:53:39.159Z,71.25
2018-07-13T23:56:07.491Z,71.47
2018-07-13T23:58:35.919Z,72.06
